Time;durP1;ratioP1;P1;durP2;ratioP2;P2;SDS_P1;SDS_P2;PMS_P1;PMS_P2;Temp;Humidity;BMP_temperature;BMP_pressure;BME280_temperature;BME280_humidity;BME280_pressure;Samples;Min_cycle;Max_cycle;Signal;HPM_P1;HPM_P2
2022/08/16 00:00:42;;;;;;;1999.90;999.90;;;14.20;99.90;;;;;;4968752;28;20043;-81
2022/08/16 00:03:09;;;;;;;1999.90;999.90;;;14.30;99.90;;;;;;4969851;28;20049;-81
2022/08/16 00:05:36;;;;;;;1999.90;999.90;;;14.40;99.90;;;;;;4969429;28;20406;-81
2022/08/16 00:08:03;;;;;;;1999.90;999.90;;;14.50;99.90;;;;;;4969905;28;20034;-81
2022/08/16 00:10:32;;;;;;;1999.90;999.90;;;14.60;99.90;;;;;;4966909;28;20122;-81
2022/08/16 00:13:02;;;;;;;1999.90;999.90;;;14.70;99.90;;;;;;4970117;28;20023;-81
2022/08/16 00:15:31;;;;;;;1999.90;999.90;;;14.70;99.90;;;;;;4968675;28;20565;-82
2022/08/16 00:17:58;;;;;;;1999.90;999.90;;;14.60;99.90;;;;;;4948560;28;20030;-81
2022/08/16 00:20:24;;;;;;;1999.90;999.90;;;14.60;99.90;;;;;;4969375;28;20058;-80
2022/08/16 00:22:50;;;;;;;1999.90;999.90;;;14.50;99.90;;;;;;4968608;28;20034;-81
2022/08/16 00:25:17;;;;;;;1999.90;999.90;;;14.40;99.90;;;;;;4952345;28;20046;-81
2022/08/16 00:27:43;;;;;;;1999.90;999.90;;;14.40;99.90;;;;;;4952180;28;20026;-81
2022/08/16 00:30:13;;;;;;;1999.90;999.90;;;14.30;99.90;;;;;;4967381;28;20573;-81
2022/08/16 00:32:42;;;;;;;1999.90;999.90;;;14.40;99.90;;;;;;4954347;28;20047;-82
2022/08/16 00:35:12;;;;;;;1999.90;999.90;;;14.30;99.90;;;;;;4971753;28;20027;-81
2022/08/16 00:37:38;;;;;;;1999.90;999.90;;;14.30;99.90;;;;;;4973171;28;20085;-81
2022/08/16 00:40:05;;;;;;;1999.90;999.90;;;14.30;99.90;;;;;;4956231;28;20039;-81
2022/08/16 00:42:31;;;;;;;1999.90;999.90;;;14.40;99.90;;;;;;4954012;28;20619;-81
2022/08/16 00:45:20;;;;;;;1999.90;999.90;;;14.40;99.90;;;;;;4955423;28;20043;-81
2022/08/16 00:47:46;;;;;;;1999.90;999.90;;;14.40;99.90;;;;;;4941360;28;20038;-81
2022/08/16 00:50:12;;;;;;;1999.90;999.90;;;14.60;99.90;;;;;;4972773;28;20390;-81
2022/08/16 00:52:40;;;;;;;1999.90;999.90;;;14.60;99.90;;;;;;4972290;28;20027;-81
2022/08/16 00:55:07;;;;;;;1999.90;999.90;;;14.60;99.90;;;;;;4955966;28;20150;-81
2022/08/16 00:57:34;;;;;;;1999.90;999.90;;;14.70;99.90;;;;;;4973138;28;20050;-81
2022/08/16 01:00:04;;;;;;;1999.90;999.90;;;14.70;99.90;;;;;;4971363;28;20031;-81
2022/08/16 01:02:30;;;;;;;1999.90;999.90;;;14.80;99.90;;;;;;4949549;28;20038;-81
2022/08/16 01:04:55;;;;;;;1999.90;999.90;;;14.70;99.90;;;;;;4972699;28;20031;-81
2022/08/16 01:07:21;;;;;;;1999.90;999.90;;;14.70;99.90;;;;;;4955517;28;20043;-81
2022/08/16 01:09:46;;;;;;;1999.90;999.90;;;14.60;99.90;;;;;;4955470;28;20035;-81
2022/08/16 01:12:12;;;;;;;1999.90;999.90;;;14.50;99.90;;;;;;4955231;28;20669;-81
2022/08/16 01:14:50;;;;;;;1999.90;999.90;;;14.60;99.90;;;;;;4959294;28;20028;-80
2022/08/16 01:17:18;;;;;;;1999.90;999.90;;;14.50;99.90;;;;;;4965274;28;20013;-80
2022/08/16 01:19:51;;;;;;;1999.90;999.90;;;14.40;99.90;;;;;;4975876;28;20101;-81
2022/08/16 01:22:35;;;;;;;1999.90;999.90;;;14.40;99.90;;;;;;4975354;28;20094;-81
2022/08/16 01:25:26;;;;;;;1999.90;999.90;;;14.40;99.90;;;;;;4967918;28;20526;-81
2022/08/16 01:27:53;;;;;;;;;;;14.50;99.90;;;;;;4968413;28;20042;-81
2022/08/16 01:30:26;;;;;;;1999.90;999.90;;;14.40;99.90;;;;;;4970422;28;19914;-81
2022/08/16 01:32:54;;;;;;;1999.90;999.90;;;14.40;99.90;;;;;;4971691;28;20457;-81
2022/08/16 01:35:38;;;;;;;1999.90;999.90;;;14.40;99.90;;;;;;4968200;28;20797;-81
2022/08/16 01:38:44;;;;;;;1999.90;999.90;;;14.30;99.90;;;;;;4971949;28;20045;-81
2022/08/16 01:41:23;;;;;;;1999.90;999.90;;;14.20;99.90;;;;;;4959560;28;20047;-81
2022/08/16 01:43:51;;;;;;;1999.90;999.90;;;14.10;99.90;;;;;;4970172;28;20061;-81
2022/08/16 01:46:28;;;;;;;1999.90;999.90;;;14.10;99.90;;;;;;4952401;28;20059;-81
2022/08/16 01:49:21;;;;;;;1999.90;999.90;;;14.00;99.90;;;;;;4969297;28;20030;-81
2022/08/16 01:51:57;;;;;;;1999.90;999.90;;;13.90;99.90;;;;;;4938067;28;20042;-81
2022/08/16 01:54:23;;;;;;;1999.90;999.90;;;13.90;99.90;;;;;;4957655;28;20040;-82
2022/08/16 01:56:48;;;;;;;1999.90;999.90;;;13.90;99.90;;;;;;4954468;28;20508;-81
2022/08/16 01:59:15;;;;;;;1999.90;999.90;;;13.90;99.90;;;;;;4969583;28;20038;-81
2022/08/16 02:01:40;;;;;;;1999.90;999.90;;;13.90;99.90;;;;;;4971462;28;20063;-81
2022/08/16 02:04:06;;;;;;;1999.90;999.90;;;13.80;99.90;;;;;;4972067;28;20058;-81
2022/08/16 02:06:33;;;;;;;1999.90;999.90;;;13.70;99.90;;;;;;4971413;28;20550;-81
2022/08/16 02:08:59;;;;;;;1999.90;999.90;;;13.70;99.90;;;;;;4971695;28;20026;-81
2022/08/16 02:11:26;;;;;;;1999.90;999.90;;;13.70;99.90;;;;;;4951464;28;20029;-82
2022/08/16 02:13:51;;;;;;;1999.90;999.90;;;13.80;99.90;;;;;;4970910;28;20082;-82
2022/08/16 02:16:18;;;;;;;1999.90;999.90;;;13.70;99.90;;;;;;4971543;28;20022;-82
2022/08/16 02:18:44;;;;;;;1999.90;999.90;;;13.70;99.90;;;;;;4971629;28;20099;-81
2022/08/16 02:21:12;;;;;;;1999.90;999.90;;;13.60;99.90;;;;;;4971678;28;20045;-81
2022/08/16 02:23:38;;;;;;;1999.90;999.90;;;13.70;99.90;;;;;;4967834;28;20023;-82
2022/08/16 02:26:05;;;;;;;1999.90;999.90;;;13.60;99.90;;;;;;4953919;28;20031;-82
2022/08/16 02:28:31;;;;;;;1999.90;999.90;;;13.60;99.90;;;;;;4971313;28;20035;-81
2022/08/16 02:31:01;;;;;;;1999.90;999.90;;;13.60;99.90;;;;;;4963305;28;20031;-81
2022/08/16 02:33:28;;;;;;;1999.90;999.90;;;13.60;99.90;;;;;;4948357;29;20035;-81
2022/08/16 02:35:53;;;;;;;1999.90;999.90;;;13.60;99.90;;;;;;4950006;29;20039;-81
2022/08/16 02:38:19;;;;;;;1999.90;999.90;;;13.50;99.90;;;;;;4935135;29;20521;-81
2022/08/16 02:40:45;;;;;;;1999.90;999.90;;;13.50;99.90;;;;;;4934732;29;20814;-81
2022/08/16 02:43:10;;;;;;;1999.90;999.90;;;13.40;99.90;;;;;;4934546;29;20039;-81
2022/08/16 02:45:36;;;;;;;1999.90;999.90;;;13.40;99.90;;;;;;4934735;29;20031;-81
2022/08/16 02:48:03;;;;;;;1999.90;999.90;;;13.30;99.90;;;;;;4951832;29;20071;-81
2022/08/16 02:50:29;;;;;;;1999.90;999.90;;;13.30;99.90;;;;;;4925302;29;20027;-81
2022/08/16 02:52:54;;;;;;;1999.90;999.90;;;13.30;99.90;;;;;;4951476;29;20094;-81
2022/08/16 02:55:21;;;;;;;1999.90;999.90;;;13.30;99.90;;;;;;4933699;29;20490;-81
2022/08/16 02:57:47;;;;;;;1999.90;999.90;;;13.20;99.90;;;;;;4934134;29;20118;-81
2022/08/16 03:00:15;;;;;;;1999.90;999.90;;;13.30;99.90;;;;;;4934609;29;20786;-81
2022/08/16 03:02:43;;;;;;;1999.90;999.90;;;13.20;99.90;;;;;;4936362;28;20051;-81
2022/08/16 03:05:12;;;;;;;1999.90;999.90;;;13.30;99.90;;;;;;4969529;28;20042;-81
2022/08/16 03:07:38;;;;;;;1999.90;999.90;;;13.20;99.90;;;;;;4968337;28;20089;-81
2022/08/16 03:10:07;;;;;;;1999.90;999.90;;;13.20;99.90;;;;;;4953299;28;20031;-82
2022/08/16 03:12:32;;;;;;;1999.90;999.90;;;13.20;99.90;;;;;;4952919;28;20078;-82
2022/08/16 03:14:58;;;;;;;1999.90;999.90;;;13.20;99.90;;;;;;4952427;28;20027;-82
2022/08/16 03:17:25;;;;;;;1999.90;999.90;;;13.20;99.90;;;;;;4969284;28;20070;-82
2022/08/16 03:19:52;;;;;;;1999.90;999.90;;;13.10;99.90;;;;;;4967119;28;20445;-82
2022/08/16 03:22:19;;;;;;;1999.90;999.90;;;13.10;99.90;;;;;;4967472;28;20034;-82
2022/08/16 03:24:45;;;;;;;1999.90;999.90;;;13.10;99.90;;;;;;4969604;28;20031;-82
2022/08/16 03:27:11;;;;;;;1999.90;999.90;;;13.10;99.90;;;;;;4970675;28;20169;-82
2022/08/16 03:29:37;;;;;;;1999.90;999.90;;;13.10;99.90;;;;;;4953027;28;20085;-82
2022/08/16 03:32:03;;;;;;;1999.90;999.90;;;13.10;99.90;;;;;;4935292;28;20035;-82
2022/08/16 03:34:30;;;;;;;1999.90;999.90;;;13.10;99.90;;;;;;4953374;28;20052;-82
2022/08/16 03:36:57;;;;;;;1999.90;999.90;;;13.10;99.90;;;;;;4967466;28;20484;-81
2022/08/16 03:39:23;;;;;;;1999.90;999.90;;;13.00;99.90;;;;;;4977182;28;20513;-82
2022/08/16 03:41:49;;;;;;;1999.90;999.90;;;13.00;99.90;;;;;;4954694;28;20058;-82
2022/08/16 03:44:15;;;;;;;1999.90;999.90;;;13.00;99.90;;;;;;4938658;28;20039;-82
2022/08/16 03:46:42;;;;;;;1999.90;999.90;;;13.10;99.90;;;;;;4948534;28;20094;-82
2022/08/16 03:49:09;;;;;;;1999.90;999.90;;;13.00;99.90;;;;;;4958642;28;20023;-82
2022/08/16 03:51:35;;;;;;;1999.90;999.90;;;13.00;99.90;;;;;;4968657;28;20039;-82
2022/08/16 03:54:00;;;;;;;1999.90;999.90;;;13.00;99.90;;;;;;4953273;28;20161;-82
2022/08/16 03:56:26;;;;;;;1999.90;999.90;;;13.00;99.90;;;;;;4969876;28;20050;-82
2022/08/16 03:58:53;;;;;;;1999.90;999.90;;;13.00;99.90;;;;;;4967453;28;20031;-82
2022/08/16 04:01:20;;;;;;;1999.90;999.90;;;13.00;99.90;;;;;;4967450;28;20027;-82
2022/08/16 04:03:46;;;;;;;1999.90;999.90;;;12.90;99.90;;;;;;4920813;28;20410;-82
2022/08/16 04:06:12;;;;;;;1999.90;999.90;;;12.90;99.90;;;;;;4971978;28;20022;-82
2022/08/16 04:08:37;;;;;;;1999.90;999.90;;;13.00;99.90;;;;;;4973696;28;20685;-82
2022/08/16 04:11:03;;;;;;;1999.90;999.90;;;13.00;99.90;;;;;;4956305;28;20427;-82
2022/08/16 04:13:30;;;;;;;1999.90;999.90;;;12.90;99.90;;;;;;4955177;28;20063;-82
2022/08/16 04:15:58;;;;;;;1999.90;999.90;;;12.90;99.90;;;;;;4972405;28;20023;-82
2022/08/16 04:18:24;;;;;;;1999.90;999.90;;;12.90;99.90;;;;;;4956196;28;20062;-82
2022/08/16 04:20:50;;;;;;;1999.90;999.90;;;12.90;99.90;;;;;;4956289;28;20113;-82
2022/08/16 04:23:16;;;;;;;1999.90;999.90;;;12.90;99.90;;;;;;4956207;28;20058;-83
2022/08/16 04:25:42;;;;;;;1999.90;999.90;;;13.00;99.90;;;;;;4956237;28;20031;-82
2022/08/16 04:28:08;;;;;;;1999.90;999.90;;;12.90;99.90;;;;;;4973941;28;20237;-82
2022/08/16 04:30:33;;;;;;;1999.90;999.90;;;12.90;99.90;;;;;;4969431;28;20035;-82
2022/08/16 04:32:59;;;;;;;1999.90;999.90;;;13.00;99.90;;;;;;4956484;28;20047;-82
2022/08/16 04:35:25;;;;;;;1999.90;999.90;;;13.00;99.90;;;;;;4956389;28;20162;-82
2022/08/16 04:37:52;;;;;;;1999.90;999.90;;;13.10;99.90;;;;;;4973708;28;20492;-82
2022/08/16 04:40:20;;;;;;;1999.90;999.90;;;13.10;99.90;;;;;;4954825;28;20018;-82
2022/08/16 04:42:46;;;;;;;1999.90;999.90;;;13.10;99.90;;;;;;4940184;28;20078;-82
2022/08/16 04:45:13;;;;;;;1999.90;999.90;;;13.10;99.90;;;;;;4973878;28;20105;-82
2022/08/16 04:47:40;;;;;;;1999.90;999.90;;;13.10;99.90;;;;;;4941599;28;20072;-81
2022/08/16 04:50:11;;;;;;;1999.90;999.90;;;13.20;99.90;;;;;;4955920;28;20038;-82
2022/08/16 04:52:37;;;;;;;1999.90;999.90;;;13.40;99.90;;;;;;4972550;28;20101;-82
2022/08/16 04:55:16;;;;;;;1999.90;999.90;;;13.50;99.90;;;;;;4956052;28;20076;-82
2022/08/16 04:57:43;;;;;;;1999.90;999.90;;;13.60;99.90;;;;;;4972512;28;20129;-82
2022/08/16 05:00:15;;;;;;;1999.90;999.90;;;13.70;99.90;;;;;;4952882;28;20054;-81
2022/08/16 05:02:40;;;;;;;1999.90;999.90;;;13.80;99.90;;;;;;4972652;28;20046;-81
2022/08/16 05:05:08;;;;;;;1999.90;999.90;;;13.80;99.90;;;;;;4955355;28;20042;-81
2022/08/16 05:07:34;;;;;;;1999.90;999.90;;;13.80;99.90;;;;;;4971107;28;20042;-82
2022/08/16 05:09:59;;;;;;;1999.90;999.90;;;13.80;99.90;;;;;;4975837;28;20037;-82
2022/08/16 05:12:25;;;;;;;1999.90;999.90;;;13.80;99.90;;;;;;4975572;28;20023;-82
2022/08/16 05:14:50;;;;;;;1999.90;999.90;;;13.70;99.90;;;;;;4972680;28;20454;-81
2022/08/16 05:17:16;;;;;;;1999.90;999.90;;;13.80;99.90;;;;;;4955152;28;20533;-82
2022/08/16 05:19:42;;;;;;;1999.90;999.90;;;13.80;99.90;;;;;;4923651;28;20034;-82
2022/08/16 05:22:08;;;;;;;1999.90;999.90;;;13.70;99.90;;;;;;4955397;28;20038;-82
2022/08/16 05:24:33;;;;;;;1999.90;999.90;;;13.80;99.90;;;;;;4955844;28;20062;-82
2022/08/16 05:26:59;;;;;;;1999.90;999.90;;;13.90;99.90;;;;;;4972588;28;20621;-82
2022/08/16 05:29:25;;;;;;;1999.90;999.90;;;13.90;99.90;;;;;;4955530;28;20081;-81
2022/08/16 05:31:52;;;;;;;1999.90;999.90;;;14.00;99.90;;;;;;4971973;28;20095;-82
2022/08/16 05:34:20;;;;;;;1999.90;999.90;;;14.00;99.90;;;;;;4972966;28;20030;-81
2022/08/16 05:36:48;;;;;;;1999.90;999.90;;;14.10;99.90;;;;;;4948582;28;20027;-82
2022/08/16 05:39:14;;;;;;;1999.90;999.90;;;14.20;99.90;;;;;;4972251;28;20037;-82
2022/08/16 05:41:40;;;;;;;1999.90;999.90;;;14.20;99.90;;;;;;4972137;28;20046;-81
2022/08/16 05:44:06;;;;;;;1999.90;999.90;;;14.30;99.90;;;;;;4973196;28;20111;-81
2022/08/16 05:46:32;;;;;;;1999.90;999.90;;;14.40;99.90;;;;;;4972400;28;20106;-81
2022/08/16 05:48:59;;;;;;;1999.90;999.90;;;14.50;99.90;;;;;;4971330;28;20029;-81
2022/08/16 05:51:24;;;;;;;1999.90;999.90;;;14.60;99.90;;;;;;4969654;28;20035;-81
2022/08/16 05:53:50;;;;;;;1999.90;999.90;;;14.60;99.90;;;;;;4955300;28;20059;-81
2022/08/16 05:56:16;;;;;;;1999.90;999.90;;;14.70;99.90;;;;;;4943131;28;20051;-81
2022/08/16 05:58:41;;;;;;;1999.90;999.90;;;14.80;99.90;;;;;;4972265;28;20103;-81
2022/08/16 06:01:07;;;;;;;1999.90;999.90;;;14.90;99.90;;;;;;4965465;28;20035;-81
2022/08/16 06:03:33;;;;;;;1999.90;999.90;;;15.00;99.90;;;;;;4959153;28;20038;-81
2022/08/16 06:05:59;;;;;;;1999.90;999.90;;;15.10;99.90;;;;;;4949651;28;20118;-81
2022/08/16 06:08:25;;;;;;;1999.90;999.90;;;15.20;99.90;;;;;;4954941;28;20114;-82
2022/08/16 06:10:51;;;;;;;1999.90;999.90;;;15.30;99.90;;;;;;4948420;29;20678;-81
2022/08/16 06:13:16;;;;;;;1999.90;999.90;;;15.30;99.90;;;;;;4952531;29;20035;-81
2022/08/16 06:15:42;;;;;;;1999.90;999.90;;;15.40;99.90;;;;;;4951380;29;20730;-81
2022/08/16 06:18:08;;;;;;;1999.90;999.90;;;15.50;99.90;;;;;;4952468;29;20039;-83
2022/08/16 06:20:33;;;;;;;1999.90;999.90;;;15.50;99.90;;;;;;4950911;29;20046;-81
2022/08/16 06:22:59;;;;;;;1999.90;999.90;;;15.60;99.90;;;;;;4951343;29;20038;-82
2022/08/16 06:25:26;;;;;;;1999.90;999.90;;;15.70;99.90;;;;;;4950411;29;20031;-81
2022/08/16 06:27:52;;;;;;;1999.90;999.90;;;15.80;99.90;;;;;;4952347;28;20513;-81
2022/08/16 06:30:19;;;;;;;1999.90;999.90;;;15.80;99.90;;;;;;4951292;28;20023;-82
2022/08/16 06:32:45;;;;;;;1999.90;999.90;;;16.00;99.90;;;;;;4977135;28;20086;-81
2022/08/16 06:35:12;;;;;;;1999.90;999.90;;;16.10;99.90;;;;;;4937729;28;20030;-81
2022/08/16 06:37:39;;;;;;;1999.90;999.90;;;16.20;99.90;;;;;;4979714;28;20030;-82
2022/08/16 06:40:06;;;;;;;1999.90;999.90;;;16.30;99.90;;;;;;4960105;28;20494;-81
2022/08/16 06:42:31;;;;;;;1999.90;999.90;;;16.40;99.90;;;;;;4982599;28;20037;-82
2022/08/16 06:44:58;;;;;;;1999.90;999.90;;;16.60;99.90;;;;;;4976331;28;20038;-83
2022/08/16 06:47:23;;;;;;;1999.90;999.90;;;16.70;99.90;;;;;;4955663;28;20502;-82
2022/08/16 06:49:49;;;;;;;1999.90;999.90;;;16.80;99.90;;;;;;4971243;28;20066;-82
2022/08/16 06:52:15;;;;;;;1999.90;999.90;;;16.90;99.90;;;;;;4962533;28;20394;-82
2022/08/16 06:54:41;;;;;;;1999.90;999.90;;;17.00;99.90;;;;;;4941890;28;20055;-82
2022/08/16 06:57:09;;;;;;;1999.90;999.90;;;17.00;99.90;;;;;;4990992;28;20065;-82
2022/08/16 06:59:36;;;;;;;1999.90;999.90;;;17.20;99.90;;;;;;4982238;28;20027;-82
2022/08/16 07:02:02;;;;;;;1999.90;999.90;;;17.40;99.90;;;;;;4954266;28;20035;-82
2022/08/16 07:04:27;;;;;;;1999.90;999.90;;;17.50;99.90;;;;;;4919724;28;20037;-82
2022/08/16 07:06:53;;;;;;;1999.90;999.90;;;17.60;99.90;;;;;;4953072;28;20042;-82
2022/08/16 07:09:19;;;;;;;1999.90;999.90;;;17.80;99.90;;;;;;4968948;28;20073;-82
2022/08/16 07:11:45;;;;;;;1999.90;999.90;;;17.90;99.90;;;;;;4970779;28;20030;-82
2022/08/16 07:14:11;;;;;;;1999.90;999.90;;;18.10;99.90;;;;;;4970851;28;20498;-82
2022/08/16 07:16:37;;;;;;;1999.90;999.90;;;18.10;99.90;;;;;;4952990;28;20099;-82
2022/08/16 07:19:02;;;;;;;1999.90;999.90;;;18.20;99.90;;;;;;4985553;28;20527;-82
2022/08/16 07:21:28;;;;;;;1999.90;999.90;;;18.30;99.90;;;;;;4953251;28;20035;-82
2022/08/16 07:23:54;;;;;;;1999.90;999.90;;;18.40;99.70;;;;;;4970914;28;20479;-82
2022/08/16 07:26:25;;;;;;;1999.90;999.90;;;18.50;99.40;;;;;;4970434;28;20754;-82
2022/08/16 07:28:51;;;;;;;1999.90;999.90;;;18.70;99.90;;;;;;4967302;28;20027;-82
2022/08/16 07:31:18;;;;;;;1999.90;999.90;;;18.80;97.90;;;;;;4970022;28;20031;-82
2022/08/16 07:33:44;;;;;;;1999.90;999.90;;;18.90;96.30;;;;;;4970706;28;20137;-82
2022/08/16 07:36:12;;;;;;;1999.90;999.90;;;19.10;97.80;;;;;;4968826;28;20497;-82
2022/08/16 07:38:38;;;;;;;1999.90;999.90;;;19.20;96.40;;;;;;4967643;28;20473;-82
2022/08/16 07:41:04;;;;;;;1999.90;999.90;;;19.40;95.90;;;;;;4965571;28;20041;-82
2022/08/16 07:43:30;;;;;;;1999.90;999.90;;;19.50;95.40;;;;;;4952627;28;20134;-82
2022/08/16 07:45:58;;;;;;;1999.90;999.90;;;19.50;94.40;;;;;;4970011;28;20033;-82
2022/08/16 07:48:24;;;;;;;1999.90;999.90;;;19.60;93.50;;;;;;4949716;28;20554;-82
2022/08/16 07:50:50;;;;;;;1999.90;999.90;;;19.60;95.60;;;;;;4970285;28;20600;-82
2022/08/16 07:53:16;;;;;;;1999.90;999.90;;;19.60;91.30;;;;;;4970368;28;20082;-80
2022/08/16 07:55:41;;;;;;;1999.90;999.90;;;19.80;93.40;;;;;;4953433;28;20031;-82
2022/08/16 07:58:07;;;;;;;1999.90;999.90;;;19.80;91.20;;;;;;4970845;28;20031;-82
2022/08/16 08:00:35;;;;;;;1999.90;999.90;;;20.00;91.80;;;;;;4969076;28;20496;-82
2022/08/16 08:03:01;;;;;;;1999.90;999.90;;;20.10;92.50;;;;;;4967526;28;20031;-82
2022/08/16 08:05:27;;;;;;;1999.90;999.90;;;20.30;90.00;;;;;;4968572;28;20510;-82
2022/08/16 08:07:53;;;;;;;1999.90;999.90;;;20.50;87.90;;;;;;4970014;28;20043;-82
2022/08/16 08:10:22;;;;;;;1999.90;999.90;;;20.70;86.00;;;;;;4972956;28;20114;-82
2022/08/16 08:12:48;;;;;;;1999.90;999.90;;;20.90;85.50;;;;;;4981783;28;20030;-82
2022/08/16 08:15:15;;;;;;;1999.90;999.90;;;21.10;83.30;;;;;;4981145;28;20046;-82
2022/08/16 08:17:41;;;;;;;1999.90;999.90;;;21.00;87.00;;;;;;4972732;28;20530;-82
2022/08/16 08:20:09;;;;;;;1999.90;999.90;;;21.20;81.70;;;;;;4970363;28;20061;-82
2022/08/16 08:22:35;;;;;;;1999.90;999.90;;;21.30;79.60;;;;;;4967500;28;20494;-83
2022/08/16 08:25:01;;;;;;;1747.82;800.17;;;21.50;81.10;;;;;;4969864;28;20113;-82
2022/08/16 08:27:28;;;;;;;1999.90;999.90;;;21.50;79.60;;;;;;4969311;28;20144;-82
2022/08/16 08:29:53;;;;;;;1999.90;999.90;;;21.60;78.20;;;;;;4953262;28;20118;-83
2022/08/16 08:32:20;;;;;;;1999.90;999.90;;;21.90;77.20;;;;;;4952524;28;20121;-82
2022/08/16 08:34:46;;;;;;;1805.47;900.65;;;22.00;76.40;;;;;;4969317;28;20393;-82
2022/08/16 08:37:12;;;;;;;1999.90;991.78;;;22.00;73.80;;;;;;4951763;28;20198;-81
2022/08/16 08:39:38;;;;;;;1999.90;999.90;;;22.10;74.40;;;;;;4968542;28;20027;-83
2022/08/16 08:42:05;;;;;;;1999.90;999.90;;;22.10;79.50;;;;;;4952460;28;20093;-82
2022/08/16 08:44:31;;;;;;;1999.90;999.90;;;22.30;72.40;;;;;;4951952;28;20068;-82
2022/08/16 08:47:02;;;;;;;1999.90;999.90;;;22.10;77.40;;;;;;4969981;28;20038;-82
2022/08/16 08:49:29;;;;;;;1999.90;999.90;;;22.50;70.60;;;;;;4955067;28;20734;-80
2022/08/16 08:51:55;;;;;;;1999.90;999.90;;;22.70;69.00;;;;;;4966205;28;20038;-80
2022/08/16 08:54:21;;;;;;;1999.90;994.05;;;22.90;76.50;;;;;;4955246;28;20035;-80
2022/08/16 08:56:47;;;;;;;1999.90;999.90;;;23.00;68.90;;;;;;4954864;28;20112;-80
2022/08/16 08:59:12;;;;;;;1999.90;999.90;;;22.80;72.60;;;;;;4955892;28;20042;-80
2022/08/16 09:01:39;;;;;;;1999.90;999.90;;;23.00;70.30;;;;;;4971237;28;20065;-80
2022/08/16 09:04:05;;;;;;;1999.90;999.90;;;23.00;64.70;;;;;;4973253;28;20033;-80
2022/08/16 09:06:32;;;;;;;1999.90;999.90;;;23.20;64.30;;;;;;4971453;28;20153;-79
2022/08/16 09:08:58;;;;;;;1999.90;999.90;;;23.50;63.60;;;;;;4972344;28;20023;-80
2022/08/16 09:11:25;;;;;;;1999.90;999.90;;;23.80;64.50;;;;;;4955463;28;20478;-80
2022/08/16 09:13:51;;;;;;;1999.90;999.90;;;23.90;62.70;;;;;;4972720;28;20380;-81
2022/08/16 09:16:17;;;;;;;1935.60;999.90;;;23.90;63.70;;;;;;4972737;28;20034;-80
2022/08/16 09:18:44;;;;;;;1999.90;999.90;;;24.20;59.60;;;;;;4939521;28;20035;-80
2022/08/16 09:21:10;;;;;;;1578.55;985.60;;;24.30;59.90;;;;;;4973382;28;20039;-81
2022/08/16 09:23:37;;;;;;;1998.82;999.90;;;24.20;57.70;;;;;;4970555;28;20073;-81
2022/08/16 09:26:06;;;;;;;1883.03;999.90;;;24.30;61.70;;;;;;4972428;28;20039;-81
2022/08/16 09:28:32;;;;;;;1517.80;999.90;;;24.40;59.90;;;;;;4954446;28;20038;-81
2022/08/16 09:30:58;;;;;;;1798.70;999.90;;;24.60;57.30;;;;;;4948375;29;20104;-81
2022/08/16 09:33:24;;;;;;;1900.60;999.90;;;24.60;56.40;;;;;;4952922;29;20027;-81
2022/08/16 09:35:50;;;;;;;1959.13;999.90;;;24.80;55.80;;;;;;4953043;29;20045;-81
2022/08/16 09:38:17;;;;;;;1386.25;999.90;;;24.90;54.90;;;;;;4953201;29;20499;-81
2022/08/16 09:40:45;;;;;;;1999.90;999.90;;;24.60;49.70;;;;;;4951308;29;20042;-80
2022/08/16 09:43:14;;;;;;;1070.80;907.55;;;24.80;56.80;;;;;;4951474;29;20123;-81
2022/08/16 09:45:41;;;;;;;1625.95;996.80;;;24.90;50.90;;;;;;4950800;29;20042;-81
2022/08/16 09:48:09;;;;;;;1385.45;999.90;;;25.20;51.80;;;;;;4935719;29;20050;-81
2022/08/16 09:50:36;;;;;;;1934.75;999.90;;;25.60;50.20;;;;;;4952190;29;20039;-81
2022/08/16 09:53:04;;;;;;;1443.95;999.90;;;26.00;54.10;;;;;;4952887;29;20034;-81
2022/08/16 09:55:30;;;;;;;1711.70;999.90;;;26.20;48.70;;;;;;4952752;29;20023;-81
2022/08/16 09:57:56;;;;;;;1413.25;999.90;;;26.60;50.10;;;;;;4935092;29;20130;-81
2022/08/16 10:00:23;;;;;;;1380.30;999.90;;;27.20;46.80;;;;;;4967879;28;20403;-81
2022/08/16 10:02:51;;;;;;;1971.28;999.90;;;26.50;46.80;;;;;;4953943;28;20034;-81
2022/08/16 10:05:18;;;;;;;1020.58;921.00;;;26.30;49.50;;;;;;4939000;28;20035;-81
2022/08/16 10:07:46;;;;;;;1053.60;940.03;;;26.50;44.90;;;;;;4937266;28;20073;-81
2022/08/16 10:10:13;;;;;;;1082.80;968.90;;;26.40;45.70;;;;;;4954505;28;20034;-81
2022/08/16 10:15:23;;;;;;;1016.05;916.20;;;26.90;43.50;;;;;;4971329;28;20038;-81
2022/08/16 10:17:52;;;;;;;941.92;859.03;;;27.00;45.30;;;;;;4971584;28;20031;-81
2022/08/16 10:20:18;;;;;;;955.95;863.83;;;27.60;40.70;;;;;;4970429;28;20042;-81
2022/08/16 10:22:44;;;;;;;1036.45;926.80;;;26.60;44.70;;;;;;4953869;28;20035;-80
2022/08/16 10:25:09;;;;;;;1296.40;999.90;;;27.10;44.50;;;;;;4953950;28;20043;-80
2022/08/16 10:27:35;;;;;;;1053.30;932.95;;;27.20;44.60;;;;;;4954730;28;20030;-81
2022/08/16 10:30:04;;;;;;;1999.90;999.90;;;27.40;42.70;;;;;;4977144;28;20083;-80
2022/08/16 10:32:30;;;;;;;1353.25;999.90;;;27.20;45.70;;;;;;4975004;28;20074;-80
2022/08/16 10:34:57;;;;;;;989.78;900.65;;;26.90;40.60;;;;;;4936419;29;20039;-80
2022/08/16 10:37:23;;;;;;;1617.55;999.90;;;27.90;41.60;;;;;;4936669;29;20027;-81
2022/08/16 10:39:49;;;;;;;975.97;890.08;;;27.20;44.10;;;;;;4952044;29;20105;-81
2022/08/16 10:42:16;;;;;;;1509.97;999.90;;;28.30;39.80;;;;;;4951229;29;20032;-80
2022/08/16 10:44:42;;;;;;;761.95;712.78;;;27.80;41.40;;;;;;4950283;29;20042;-80
2022/08/16 10:47:09;;;;;;;838.92;781.88;;;28.40;37.00;;;;;;4951903;29;20035;-80
2022/08/16 10:49:35;;;;;;;756.42;704.00;;;28.40;38.00;;;;;;4951813;29;20039;-80
2022/08/16 10:52:01;;;;;;;966.03;872.70;;;28.30;34.10;;;;;;4951430;29;20031;-80
2022/08/16 10:54:27;;;;;;;865.53;808.63;;;28.40;37.40;;;;;;4934415;29;20030;-81
2022/08/16 10:56:54;;;;;;;1014.40;929.63;;;29.00;34.10;;;;;;4964759;28;20043;-81
2022/08/16 10:59:20;;;;;;;710.10;660.47;;;28.60;36.30;;;;;;4966366;28;20043;-80
2022/08/16 11:01:47;;;;;;;891.20;819.38;;;30.30;32.10;;;;;;4962414;28;20034;-81
2022/08/16 11:04:13;;;;;;;566.50;533.80;;;30.40;31.50;;;;;;4970838;28;20038;-80
2022/08/16 11:06:39;;;;;;;445.45;422.38;;;30.50;29.60;;;;;;4970258;28;20027;-80
2022/08/16 11:09:05;;;;;;;811.00;750.03;;;30.30;29.30;;;;;;4970827;28;20580;-80
2022/08/16 11:11:31;;;;;;;558.88;527.40;;;30.00;31.70;;;;;;4970687;28;20026;-81
2022/08/16 11:13:57;;;;;;;728.05;677.55;;;30.50;28.80;;;;;;4970967;28;20031;-80
2022/08/16 11:16:22;;;;;;;671.00;631.10;;;30.60;32.50;;;;;;4970024;28;20031;-80
2022/08/16 11:18:48;;;;;;;710.10;611.78;;;31.40;29.00;;;;;;4970596;28;20035;-81
2022/08/16 11:21:14;;;;;;;605.58;573.20;;;30.90;29.00;;;;;;4970357;28;20118;-80
2022/08/16 11:23:40;;;;;;;698.92;656.78;;;31.30;29.40;;;;;;4969092;28;20630;-81
2022/08/16 11:26:07;;;;;;;784.75;733.10;;;30.90;31.00;;;;;;4937319;28;20058;-80
2022/08/16 11:28:34;;;;;;;645.92;609.38;;;31.30;28.20;;;;;;4970051;28;20030;-81
2022/08/16 11:31:00;;;;;;;825.42;767.83;;;29.70;29.20;;;;;;4969713;28;20027;-80
2022/08/16 11:33:26;;;;;;;764.42;713.33;;;29.40;30.00;;;;;;4970506;28;20680;-80
2022/08/16 11:35:52;;;;;;;752.47;706.50;;;30.00;29.20;;;;;;4969384;28;20126;-80
2022/08/16 11:38:21;;;;;;;740.75;694.95;;;30.90;28.30;;;;;;4936786;28;20129;-80
2022/08/16 11:40:50;;;;;;;556.45;526.70;;;31.90;27.20;;;;;;4970652;28;20054;-80
2022/08/16 11:43:20;;;;;;;578.63;547.67;;;33.00;24.30;;;;;;4970225;28;20046;-80
2022/08/16 11:45:47;;;;;;;588.80;556.45;;;32.50;27.20;;;;;;4952924;28;20125;-81
2022/08/16 11:48:13;;;;;;;493.25;469.55;;;31.70;25.90;;;;;;4969958;28;20487;-80
2022/08/16 11:50:41;;;;;;;621.03;585.70;;;32.00;27.50;;;;;;4968691;28;20058;-80
2022/08/16 11:53:07;;;;;;;675.65;633.28;;;32.40;25.70;;;;;;4953057;28;20034;-80
2022/08/16 11:55:34;;;;;;;514.00;485.15;;;32.00;25.90;;;;;;4968293;28;20022;-81
2022/08/16 11:58:00;;;;;;;596.72;561.05;;;32.40;26.50;;;;;;4970092;28;20062;-80
2022/08/16 12:00:28;;;;;;;616.80;580.67;;;31.70;28.30;;;;;;4967041;28;20035;-80
2022/08/16 12:02:54;;;;;;;811.13;756.90;;;32.20;26.50;;;;;;4953131;28;20046;-81